sensor_id;sensor_type;location;lat;lon;timestamp;P1;durP1;ratioP1;P2;durP2;ratioP2
55372;SDS011;70018;47.838;16.490;2023-06-04T00:00:22;4.82;;;2.90;;
55372;SDS011;70018;47.838;16.490;2023-06-04T00:02:48;7.95;;;2.80;;
55372;SDS011;70018;47.838;16.490;2023-06-04T00:05:15;3.47;;;1.98;;
55372;SDS011;70018;47.838;16.490;2023-06-04T00:07:41;2.58;;;1.60;;
55372;SDS011;70018;47.838;16.490;2023-06-04T00:10:08;2.85;;;2.00;;
55372;SDS011;70018;47.838;16.490;2023-06-04T00:12:35;3.42;;;2.17;;
55372;SDS011;70018;47.838;16.490;2023-06-04T00:15:02;3.58;;;2.55;;
55372;SDS011;70018;47.838;16.490;2023-06-04T00:17:29;4.35;;;2.67;;
55372;SDS011;70018;47.838;16.490;2023-06-04T00:19:55;3.95;;;2.05;;
55372;SDS011;70018;47.838;16.490;2023-06-04T00:22:22;3.75;;;1.80;;
55372;SDS011;70018;47.838;16.490;2023-06-04T00:24:49;3.20;;;1.80;;
55372;SDS011;70018;47.838;16.490;2023-06-04T00:27:16;3.25;;;2.13;;
55372;SDS011;70018;47.838;16.490;2023-06-04T00:29:43;5.47;;;2.22;;
55372;SDS011;70018;47.838;16.490;2023-06-04T00:32:09;3.78;;;2.03;;
55372;SDS011;70018;47.838;16.490;2023-06-04T00:34:36;3.90;;;2.45;;
55372;SDS011;70018;47.838;16.490;2023-06-04T00:37:03;5.25;;;1.85;;
55372;SDS011;70018;47.838;16.490;2023-06-04T00:39:30;4.20;;;2.28;;
55372;SDS011;70018;47.838;16.490;2023-06-04T00:41:57;4.47;;;1.60;;
55372;SDS011;70018;47.838;16.490;2023-06-04T00:44:23;3.15;;;1.27;;
55372;SDS011;70018;47.838;16.490;2023-06-04T00:46:52;2.55;;;1.63;;
55372;SDS011;70018;47.838;16.490;2023-06-04T00:49:22;4.65;;;1.80;;
55372;SDS011;70018;47.838;16.490;2023-06-04T00:51:48;2.88;;;2.00;;
55372;SDS011;70018;47.838;16.490;2023-06-04T00:54:15;5.15;;;2.42;;
55372;SDS011;70018;47.838;16.490;2023-06-04T00:56:44;3.13;;;1.60;;
55372;SDS011;70018;47.838;16.490;2023-06-04T00:59:11;2.38;;;1.60;;
55372;SDS011;70018;47.838;16.490;2023-06-04T01:07:29;2.97;;;1.98;;
55372;SDS011;70018;47.838;16.490;2023-06-04T01:09:56;2.78;;;2.03;;
55372;SDS011;70018;47.838;16.490;2023-06-04T01:12:23;3.55;;;2.33;;
55372;SDS011;70018;47.838;16.490;2023-06-04T01:14:50;7.20;;;2.25;;
55372;SDS011;70018;47.838;16.490;2023-06-04T01:17:23;4.00;;;2.38;;
55372;SDS011;70018;47.838;16.490;2023-06-04T01:23:14;3.15;;;2.08;;
55372;SDS011;70018;47.838;16.490;2023-06-04T01:26:03;6.95;;;2.65;;
55372;SDS011;70018;47.838;16.490;2023-06-04T01:28:32;6.97;;;2.65;;
55372;SDS011;70018;47.838;16.490;2023-06-04T01:31:00;3.35;;;2.30;;
55372;SDS011;70018;47.838;16.490;2023-06-04T01:33:28;4.18;;;2.47;;
55372;SDS011;70018;47.838;16.490;2023-06-04T01:35:54;3.80;;;2.25;;
55372;SDS011;70018;47.838;16.490;2023-06-04T01:38:22;3.05;;;2.08;;
55372;SDS011;70018;47.838;16.490;2023-06-04T01:40:49;4.45;;;2.15;;
55372;SDS011;70018;47.838;16.490;2023-06-04T01:43:17;4.25;;;2.17;;
55372;SDS011;70018;47.838;16.490;2023-06-04T01:45:43;4.45;;;2.20;;
55372;SDS011;70018;47.838;16.490;2023-06-04T01:48:10;3.80;;;2.15;;
55372;SDS011;70018;47.838;16.490;2023-06-04T01:50:36;8.50;;;2.20;;
55372;SDS011;70018;47.838;16.490;2023-06-04T01:53:03;3.88;;;1.30;;
55372;SDS011;70018;47.838;16.490;2023-06-04T01:55:30;2.95;;;1.60;;
55372;SDS011;70018;47.838;16.490;2023-06-04T01:58:00;2.03;;;1.40;;
55372;SDS011;70018;47.838;16.490;2023-06-04T02:00:27;2.53;;;1.70;;
55372;SDS011;70018;47.838;16.490;2023-06-04T02:02:53;3.72;;;1.70;;
55372;SDS011;70018;47.838;16.490;2023-06-04T02:05:22;3.53;;;1.60;;
55372;SDS011;70018;47.838;16.490;2023-06-04T02:07:49;2.67;;;1.90;;
55372;SDS011;70018;47.838;16.490;2023-06-04T02:10:16;3.78;;;1.70;;
55372;SDS011;70018;47.838;16.490;2023-06-04T02:12:54;3.67;;;2.08;;
55372;SDS011;70018;47.838;16.490;2023-06-04T02:15:23;3.35;;;2.25;;
55372;SDS011;70018;47.838;16.490;2023-06-04T02:17:54;4.43;;;2.22;;
55372;SDS011;70018;47.838;16.490;2023-06-04T02:20:26;3.65;;;2.00;;
55372;SDS011;70018;47.838;16.490;2023-06-04T02:22:56;3.40;;;1.92;;
55372;SDS011;70018;47.838;16.490;2023-06-04T02:25:23;1.98;;;1.42;;
55372;SDS011;70018;47.838;16.490;2023-06-04T02:27:50;3.75;;;1.70;;
55372;SDS011;70018;47.838;16.490;2023-06-04T02:30:16;2.25;;;1.50;;
55372;SDS011;70018;47.838;16.490;2023-06-04T02:32:43;2.53;;;1.63;;
55372;SDS011;70018;47.838;16.490;2023-06-04T02:35:18;2.20;;;1.27;;
55372;SDS011;70018;47.838;16.490;2023-06-04T02:37:45;1.75;;;1.38;;
55372;SDS011;70018;47.838;16.490;2023-06-04T02:40:11;2.65;;;1.48;;
55372;SDS011;70018;47.838;16.490;2023-06-04T02:42:38;3.65;;;1.45;;
55372;SDS011;70018;47.838;16.490;2023-06-04T02:45:05;2.03;;;1.45;;
55372;SDS011;70018;47.838;16.490;2023-06-04T02:47:32;3.20;;;1.90;;
55372;SDS011;70018;47.838;16.490;2023-06-04T02:49:58;1.80;;;1.35;;
55372;SDS011;70018;47.838;16.490;2023-06-04T02:52:25;2.42;;;1.50;;
55372;SDS011;70018;47.838;16.490;2023-06-04T02:54:52;2.45;;;1.60;;
55372;SDS011;70018;47.838;16.490;2023-06-04T02:57:19;3.20;;;1.67;;
55372;SDS011;70018;47.838;16.490;2023-06-04T02:59:45;2.78;;;1.77;;
55372;SDS011;70018;47.838;16.490;2023-06-04T03:02:12;2.95;;;1.73;;
55372;SDS011;70018;47.838;16.490;2023-06-04T03:04:41;3.35;;;1.90;;
55372;SDS011;70018;47.838;16.490;2023-06-04T03:07:08;3.78;;;1.88;;
55372;SDS011;70018;47.838;16.490;2023-06-04T03:09:37;7.75;;;1.90;;
55372;SDS011;70018;47.838;16.490;2023-06-04T03:12:04;4.05;;;1.95;;
55372;SDS011;70018;47.838;16.490;2023-06-04T03:14:31;4.28;;;2.05;;
55372;SDS011;70018;47.838;16.490;2023-06-04T03:17:02;4.82;;;1.15;;
55372;SDS011;70018;47.838;16.490;2023-06-04T03:19:37;2.70;;;1.80;;
55372;SDS011;70018;47.838;16.490;2023-06-04T03:22:05;3.67;;;1.80;;
55372;SDS011;70018;47.838;16.490;2023-06-04T03:24:33;3.30;;;2.08;;
55372;SDS011;70018;47.838;16.490;2023-06-04T03:27:02;4.22;;;2.55;;
55372;SDS011;70018;47.838;16.490;2023-06-04T03:29:30;3.58;;;2.00;;
55372;SDS011;70018;47.838;16.490;2023-06-04T03:31:58;3.20;;;1.90;;
55372;SDS011;70018;47.838;16.490;2023-06-04T03:34:25;4.82;;;2.17;;
55372;SDS011;70018;47.838;16.490;2023-06-04T03:36:53;5.63;;;1.90;;
55372;SDS011;70018;47.838;16.490;2023-06-04T03:39:21;4.20;;;2.00;;
55372;SDS011;70018;47.838;16.490;2023-06-04T03:41:48;2.20;;;1.77;;
55372;SDS011;70018;47.838;16.490;2023-06-04T03:44:15;2.25;;;1.60;;
55372;SDS011;70018;47.838;16.490;2023-06-04T03:46:43;3.05;;;1.92;;
55372;SDS011;70018;47.838;16.490;2023-06-04T03:49:13;8.68;;;2.50;;
55372;SDS011;70018;47.838;16.490;2023-06-04T03:51:40;4.38;;;2.15;;
55372;SDS011;70018;47.838;16.490;2023-06-04T03:54:08;2.90;;;2.20;;
55372;SDS011;70018;47.838;16.490;2023-06-04T03:56:34;3.33;;;1.80;;
55372;SDS011;70018;47.838;16.490;2023-06-04T03:59:01;4.90;;;2.28;;
55372;SDS011;70018;47.838;16.490;2023-06-04T04:01:28;4.25;;;2.40;;
55372;SDS011;70018;47.838;16.490;2023-06-04T04:03:54;2.90;;;2.25;;
55372;SDS011;70018;47.838;16.490;2023-06-04T04:06:21;3.75;;;2.20;;
55372;SDS011;70018;47.838;16.490;2023-06-04T04:08:48;4.03;;;2.13;;
55372;SDS011;70018;47.838;16.490;2023-06-04T04:11:15;4.95;;;2.60;;
55372;SDS011;70018;47.838;16.490;2023-06-04T04:13:44;3.08;;;2.25;;
55372;SDS011;70018;47.838;16.490;2023-06-04T04:16:11;3.97;;;2.53;;
55372;SDS011;70018;47.838;16.490;2023-06-04T04:18:40;2.83;;;2.17;;
55372;SDS011;70018;47.838;16.490;2023-06-04T04:21:09;3.75;;;2.10;;
55372;SDS011;70018;47.838;16.490;2023-06-04T04:23:37;3.40;;;2.05;;
55372;SDS011;70018;47.838;16.490;2023-06-04T04:26:08;3.75;;;2.85;;
55372;SDS011;70018;47.838;16.490;2023-06-04T04:28:36;4.10;;;2.22;;
55372;SDS011;70018;47.838;16.490;2023-06-04T04:31:03;4.75;;;2.30;;
55372;SDS011;70018;47.838;16.490;2023-06-04T04:33:30;5.35;;;2.63;;
55372;SDS011;70018;47.838;16.490;2023-06-04T04:35:59;3.38;;;1.75;;
55372;SDS011;70018;47.838;16.490;2023-06-04T04:38:26;5.32;;;2.35;;
55372;SDS011;70018;47.838;16.490;2023-06-04T04:40:54;5.57;;;2.10;;
55372;SDS011;70018;47.838;16.490;2023-06-04T04:43:28;3.97;;;2.45;;
55372;SDS011;70018;47.838;16.490;2023-06-04T04:45:56;2.40;;;1.70;;
55372;SDS011;70018;47.838;16.490;2023-06-04T04:48:23;4.65;;;2.30;;
55372;SDS011;70018;47.838;16.490;2023-06-04T04:50:50;3.03;;;2.25;;
55372;SDS011;70018;47.838;16.490;2023-06-04T04:53:16;3.05;;;2.20;;
55372;SDS011;70018;47.838;16.490;2023-06-04T04:55:43;5.78;;;2.45;;
55372;SDS011;70018;47.838;16.490;2023-06-04T04:58:10;5.50;;;2.25;;
55372;SDS011;70018;47.838;16.490;2023-06-04T05:00:37;4.57;;;2.30;;
55372;SDS011;70018;47.838;16.490;2023-06-04T05:03:03;3.67;;;1.88;;
55372;SDS011;70018;47.838;16.490;2023-06-04T05:05:31;4.13;;;2.25;;
55372;SDS011;70018;47.838;16.490;2023-06-04T05:07:58;5.13;;;2.55;;
55372;SDS011;70018;47.838;16.490;2023-06-04T05:10:25;6.95;;;2.28;;
55372;SDS011;70018;47.838;16.490;2023-06-04T05:12:52;4.55;;;2.10;;
55372;SDS011;70018;47.838;16.490;2023-06-04T05:15:19;3.47;;;1.80;;
55372;SDS011;70018;47.838;16.490;2023-06-04T05:17:46;2.75;;;2.15;;
55372;SDS011;70018;47.838;16.490;2023-06-04T05:20:13;3.05;;;2.10;;
55372;SDS011;70018;47.838;16.490;2023-06-04T05:22:42;6.32;;;2.40;;
55372;SDS011;70018;47.838;16.490;2023-06-04T05:25:11;4.40;;;2.33;;
55372;SDS011;70018;47.838;16.490;2023-06-04T05:27:39;3.72;;;2.35;;
55372;SDS011;70018;47.838;16.490;2023-06-04T05:30:06;2.83;;;2.00;;
55372;SDS011;70018;47.838;16.490;2023-06-04T05:32:34;3.17;;;1.60;;
55372;SDS011;70018;47.838;16.490;2023-06-04T05:35:07;3.67;;;2.00;;
55372;SDS011;70018;47.838;16.490;2023-06-04T05:37:35;3.00;;;2.17;;
55372;SDS011;70018;47.838;16.490;2023-06-04T05:40:04;3.47;;;1.95;;
55372;SDS011;70018;47.838;16.490;2023-06-04T05:42:32;7.07;;;2.30;;
55372;SDS011;70018;47.838;16.490;2023-06-04T05:44:59;2.20;;;1.60;;
55372;SDS011;70018;47.838;16.490;2023-06-04T05:47:26;2.47;;;1.85;;
55372;SDS011;70018;47.838;16.490;2023-06-04T05:49:55;2.97;;;1.70;;
55372;SDS011;70018;47.838;16.490;2023-06-04T05:52:23;2.67;;;1.75;;
55372;SDS011;70018;47.838;16.490;2023-06-04T05:54:49;2.67;;;1.85;;
55372;SDS011;70018;47.838;16.490;2023-06-04T05:57:16;5.28;;;1.60;;
55372;SDS011;70018;47.838;16.490;2023-06-04T05:59:43;7.70;;;2.50;;
55372;SDS011;70018;47.838;16.490;2023-06-04T06:02:09;5.22;;;2.25;;
55372;SDS011;70018;47.838;16.490;2023-06-04T06:04:36;2.95;;;1.95;;
55372;SDS011;70018;47.838;16.490;2023-06-04T06:07:04;10.23;;;2.40;;
55372;SDS011;70018;47.838;16.490;2023-06-04T06:09:31;3.45;;;1.98;;
55372;SDS011;70018;47.838;16.490;2023-06-04T06:11:58;6.03;;;3.95;;
55372;SDS011;70018;47.838;16.490;2023-06-04T06:14:24;2.30;;;1.95;;
55372;SDS011;70018;47.838;16.490;2023-06-04T06:16:51;3.72;;;1.75;;
55372;SDS011;70018;47.838;16.490;2023-06-04T06:19:19;2.83;;;1.92;;
55372;SDS011;70018;47.838;16.490;2023-06-04T06:21:46;4.75;;;2.13;;
55372;SDS011;70018;47.838;16.490;2023-06-04T06:24:12;6.97;;;1.92;;
55372;SDS011;70018;47.838;16.490;2023-06-04T06:26:39;3.67;;;1.92;;
55372;SDS011;70018;47.838;16.490;2023-06-04T06:29:06;3.42;;;1.77;;
55372;SDS011;70018;47.838;16.490;2023-06-04T06:31:33;4.40;;;1.75;;
55372;SDS011;70018;47.838;16.490;2023-06-04T06:34:00;3.42;;;1.83;;
55372;SDS011;70018;47.838;16.490;2023-06-04T06:36:26;2.75;;;1.70;;
55372;SDS011;70018;47.838;16.490;2023-06-04T06:38:54;2.85;;;1.63;;
55372;SDS011;70018;47.838;16.490;2023-06-04T06:41:21;7.60;;;2.13;;
55372;SDS011;70018;47.838;16.490;2023-06-04T06:43:48;4.72;;;1.92;;
55372;SDS011;70018;47.838;16.490;2023-06-04T06:46:14;2.50;;;1.85;;
55372;SDS011;70018;47.838;16.490;2023-06-04T06:48:41;2.95;;;1.77;;
55372;SDS011;70018;47.838;16.490;2023-06-04T06:51:11;6.07;;;2.53;;
55372;SDS011;70018;47.838;16.490;2023-06-04T06:53:38;5.63;;;2.00;;
55372;SDS011;70018;47.838;16.490;2023-06-04T06:56:06;2.22;;;1.50;;
55372;SDS011;70018;47.838;16.490;2023-06-04T06:58:33;2.70;;;1.75;;
55372;SDS011;70018;47.838;16.490;2023-06-04T07:00:59;3.42;;;2.00;;
55372;SDS011;70018;47.838;16.490;2023-06-04T07:03:27;3.20;;;1.80;;
55372;SDS011;70018;47.838;16.490;2023-06-04T07:05:54;3.58;;;2.05;;
55372;SDS011;70018;47.838;16.490;2023-06-04T07:08:21;3.42;;;1.92;;
55372;SDS011;70018;47.838;16.490;2023-06-04T07:10:47;6.18;;;2.30;;
55372;SDS011;70018;47.838;16.490;2023-06-04T07:13:14;2.80;;;1.95;;
55372;SDS011;70018;47.838;16.490;2023-06-04T07:15:41;5.55;;;1.80;;
55372;SDS011;70018;47.838;16.490;2023-06-04T07:18:08;7.70;;;1.50;;
55372;SDS011;70018;47.838;16.490;2023-06-04T07:20:35;4.13;;;2.22;;
55372;SDS011;70018;47.838;16.490;2023-06-04T07:23:02;3.17;;;1.63;;
55372;SDS011;70018;47.838;16.490;2023-06-04T07:25:28;4.40;;;2.60;;
55372;SDS011;70018;47.838;16.490;2023-06-04T07:27:55;3.45;;;1.83;;
55372;SDS011;70018;47.838;16.490;2023-06-04T07:30:25;3.35;;;1.75;;
55372;SDS011;70018;47.838;16.490;2023-06-04T07:32:52;3.15;;;2.10;;
55372;SDS011;70018;47.838;16.490;2023-06-04T07:35:19;4.13;;;2.00;;
55372;SDS011;70018;47.838;16.490;2023-06-04T07:37:45;5.05;;;2.65;;
55372;SDS011;70018;47.838;16.490;2023-06-04T07:40:14;4.00;;;2.40;;
55372;SDS011;70018;47.838;16.490;2023-06-04T07:42:42;3.85;;;2.33;;
55372;SDS011;70018;47.838;16.490;2023-06-04T07:45:09;5.93;;;2.30;;
55372;SDS011;70018;47.838;16.490;2023-06-04T07:47:36;5.10;;;2.08;;
55372;SDS011;70018;47.838;16.490;2023-06-04T07:50:03;3.38;;;2.30;;
55372;SDS011;70018;47.838;16.490;2023-06-04T07:52:32;4.22;;;2.22;;
55372;SDS011;70018;47.838;16.490;2023-06-04T07:54:59;3.35;;;2.05;;
55372;SDS011;70018;47.838;16.490;2023-06-04T07:57:26;4.57;;;2.38;;
55372;SDS011;70018;47.838;16.490;2023-06-04T07:59:53;5.47;;;2.13;;
55372;SDS011;70018;47.838;16.490;2023-06-04T08:02:20;5.13;;;2.15;;
55372;SDS011;70018;47.838;16.490;2023-06-04T08:04:46;6.47;;;2.50;;
55372;SDS011;70018;47.838;16.490;2023-06-04T08:07:13;5.30;;;2.35;;
55372;SDS011;70018;47.838;16.490;2023-06-04T08:09:40;2.67;;;1.80;;
55372;SDS011;70018;47.838;16.490;2023-06-04T08:12:07;3.70;;;2.40;;
55372;SDS011;70018;47.838;16.490;2023-06-04T08:14:36;5.80;;;2.50;;
55372;SDS011;70018;47.838;16.490;2023-06-04T08:17:03;5.20;;;2.13;;
55372;SDS011;70018;47.838;16.490;2023-06-04T08:19:29;3.38;;;2.28;;
55372;SDS011;70018;47.838;16.490;2023-06-04T08:21:56;7.63;;;2.22;;
55372;SDS011;70018;47.838;16.490;2023-06-04T08:24:23;2.78;;;1.98;;
55372;SDS011;70018;47.838;16.490;2023-06-04T08:26:49;5.05;;;1.73;;
55372;SDS011;70018;47.838;16.490;2023-06-04T08:29:16;3.30;;;1.83;;
55372;SDS011;70018;47.838;16.490;2023-06-04T08:31:43;3.60;;;1.92;;
55372;SDS011;70018;47.838;16.490;2023-06-04T08:34:10;2.78;;;1.70;;
55372;SDS011;70018;47.838;16.490;2023-06-04T08:36:36;4.15;;;1.85;;
55372;SDS011;70018;47.838;16.490;2023-06-04T08:39:03;3.67;;;2.10;;
55372;SDS011;70018;47.838;16.490;2023-06-04T08:44:02;5.95;;;1.90;;
55372;SDS011;70018;47.838;16.490;2023-06-04T08:46:32;3.90;;;2.10;;
55372;SDS011;70018;47.838;16.490;2023-06-04T08:48:59;2.78;;;1.95;;
55372;SDS011;70018;47.838;16.490;2023-06-04T08:51:31;4.10;;;2.10;;
55372;SDS011;70018;47.838;16.490;2023-06-04T08:54:00;5.35;;;1.83;;
55372;SDS011;70018;47.838;16.490;2023-06-04T08:56:27;5.65;;;1.70;;
55372;SDS011;70018;47.838;16.490;2023-06-04T08:59:02;3.33;;;1.75;;
55372;SDS011;70018;47.838;16.490;2023-06-04T09:01:31;2.30;;;1.48;;
55372;SDS011;70018;47.838;16.490;2023-06-04T09:04:03;2.30;;;1.70;;
55372;SDS011;70018;47.838;16.490;2023-06-04T09:08:59;3.95;;;1.50;;
55372;SDS011;70018;47.838;16.490;2023-06-04T09:11:36;3.15;;;1.67;;
55372;SDS011;70018;47.838;16.490;2023-06-04T09:14:11;4.05;;;1.65;;
55372;SDS011;70018;47.838;16.490;2023-06-04T09:16:45;2.58;;;1.65;;
55372;SDS011;70018;47.838;16.490;2023-06-04T09:19:17;3.25;;;1.88;;
55372;SDS011;70018;47.838;16.490;2023-06-04T09:21:51;1.98;;;1.42;;
55372;SDS011;70018;47.838;16.490;2023-06-04T09:24:26;2.88;;;1.17;;
55372;SDS011;70018;47.838;16.490;2023-06-04T09:27:10;3.00;;;1.80;;
55372;SDS011;70018;47.838;16.490;2023-06-04T09:29:38;2.72;;;1.33;;
55372;SDS011;70018;47.838;16.490;2023-06-04T09:32:05;2.72;;;1.50;;
55372;SDS011;70018;47.838;16.490;2023-06-04T09:34:32;3.67;;;1.60;;
55372;SDS011;70018;47.838;16.490;2023-06-04T09:36:59;5.70;;;1.83;;
55372;SDS011;70018;47.838;16.490;2023-06-04T09:39:26;4.40;;;2.00;;
55372;SDS011;70018;47.838;16.490;2023-06-04T09:41:59;2.50;;;1.90;;
55372;SDS011;70018;47.838;16.490;2023-06-04T09:44:28;2.03;;;1.45;;
55372;SDS011;70018;47.838;16.490;2023-06-04T09:46:55;2.30;;;1.50;;
55372;SDS011;70018;47.838;16.490;2023-06-04T09:49:24;2.05;;;1.27;;
55372;SDS011;70018;47.838;16.490;2023-06-04T09:51:51;1.88;;;1.60;;
55372;SDS011;70018;47.838;16.490;2023-06-04T09:54:17;3.25;;;1.52;;
55372;SDS011;70018;47.838;16.490;2023-06-04T09:56:44;2.85;;;1.27;;
55372;SDS011;70018;47.838;16.490;2023-06-04T09:59:11;3.20;;;1.40;;
55372;SDS011;70018;47.838;16.490;2023-06-04T10:01:39;3.92;;;1.30;;
55372;SDS011;70018;47.838;16.490;2023-06-04T10:04:08;1.77;;;1.30;;
55372;SDS011;70018;47.838;16.490;2023-06-04T10:06:38;3.83;;;1.38;;
55372;SDS011;70018;47.838;16.490;2023-06-04T10:09:07;3.28;;;1.40;;
55372;SDS011;70018;47.838;16.490;2023-06-04T10:11:37;2.40;;;1.50;;
55372;SDS011;70018;47.838;16.490;2023-06-04T10:14:14;7.18;;;2.35;;
55372;SDS011;70018;47.838;16.490;2023-06-04T10:16:46;4.20;;;1.40;;
55372;SDS011;70018;47.838;16.490;2023-06-04T10:19:14;1.67;;;1.30;;
55372;SDS011;70018;47.838;16.490;2023-06-04T10:21:42;1.67;;;1.20;;
55372;SDS011;70018;47.838;16.490;2023-06-04T10:24:09;3.05;;;1.27;;
55372;SDS011;70018;47.838;16.490;2023-06-04T10:26:38;6.53;;;1.60;;
55372;SDS011;70018;47.838;16.490;2023-06-04T10:29:07;2.60;;;1.05;;
55372;SDS011;70018;47.838;16.490;2023-06-04T10:31:37;1.95;;;1.13;;
55372;SDS011;70018;47.838;16.490;2023-06-04T10:34:04;6.30;;;1.20;;
55372;SDS011;70018;47.838;16.490;2023-06-04T10:36:31;1.40;;;0.95;;
55372;SDS011;70018;47.838;16.490;2023-06-04T10:39:08;4.35;;;1.67;;
55372;SDS011;70018;47.838;16.490;2023-06-04T10:41:36;1.88;;;1.27;;
55372;SDS011;70018;47.838;16.490;2023-06-04T10:44:03;2.72;;;1.55;;
55372;SDS011;70018;47.838;16.490;2023-06-04T10:46:39;2.60;;;1.08;;
55372;SDS011;70018;47.838;16.490;2023-06-04T10:49:09;3.15;;;1.27;;
55372;SDS011;70018;47.838;16.490;2023-06-04T10:51:37;1.52;;;0.93;;
55372;SDS011;70018;47.838;16.490;2023-06-04T10:54:04;2.10;;;1.15;;
55372;SDS011;70018;47.838;16.490;2023-06-04T10:56:32;1.95;;;1.02;;
55372;SDS011;70018;47.838;16.490;2023-06-04T10:59:13;1.23;;;0.85;;
55372;SDS011;70018;47.838;16.490;2023-06-04T11:01:41;1.42;;;1.00;;
55372;SDS011;70018;47.838;16.490;2023-06-04T11:04:18;1.73;;;0.93;;
55372;SDS011;70018;47.838;16.490;2023-06-04T11:06:46;1.67;;;0.80;;
55372;SDS011;70018;47.838;16.490;2023-06-04T11:09:14;1.23;;;0.85;;
55372;SDS011;70018;47.838;16.490;2023-06-04T11:11:44;1.52;;;1.08;;
55372;SDS011;70018;47.838;16.490;2023-06-04T11:14:11;1.70;;;0.85;;
55372;SDS011;70018;47.838;16.490;2023-06-04T11:16:42;1.90;;;0.77;;
55372;SDS011;70018;47.838;16.490;2023-06-04T11:19:08;1.30;;;0.98;;
55372;SDS011;70018;47.838;16.490;2023-06-04T11:21:35;3.70;;;1.10;;
55372;SDS011;70018;47.838;16.490;2023-06-04T11:24:02;1.40;;;0.93;;
55372;SDS011;70018;47.838;16.490;2023-06-04T11:26:33;2.47;;;1.20;;
55372;SDS011;70018;47.838;16.490;2023-06-04T11:29:06;1.73;;;1.10;;
55372;SDS011;70018;47.838;16.490;2023-06-04T11:31:43;4.40;;;1.20;;
55372;SDS011;70018;47.838;16.490;2023-06-04T11:34:11;3.72;;;1.13;;
55372;SDS011;70018;47.838;16.490;2023-06-04T11:36:49;1.83;;;1.00;;
55372;SDS011;70018;47.838;16.490;2023-06-04T11:39:16;1.33;;;0.98;;
55372;SDS011;70018;47.838;16.490;2023-06-04T11:41:42;2.65;;;1.33;;
55372;SDS011;70018;47.838;16.490;2023-06-04T11:44:09;1.38;;;0.82;;
55372;SDS011;70018;47.838;16.490;2023-06-04T11:46:41;4.13;;;1.02;;
55372;SDS011;70018;47.838;16.490;2023-06-04T11:49:12;1.13;;;0.85;;
55372;SDS011;70018;47.838;16.490;2023-06-04T11:51:45;3.90;;;1.17;;
55372;SDS011;70018;47.838;16.490;2023-06-04T11:54:21;3.92;;;1.00;;
55372;SDS011;70018;47.838;16.490;2023-06-04T11:56:49;2.90;;;1.10;;
55372;SDS011;70018;47.838;16.490;2023-06-04T11:59:17;2.80;;;1.10;;
55372;SDS011;70018;47.838;16.490;2023-06-04T12:01:45;2.50;;;1.00;;
55372;SDS011;70018;47.838;16.490;2023-06-04T12:04:13;1.80;;;0.93;;
55372;SDS011;70018;47.838;16.490;2023-06-04T12:06:56;2.67;;;1.10;;
55372;SDS011;70018;47.838;16.490;2023-06-04T12:09:25;3.72;;;1.08;;
55372;SDS011;70018;47.838;16.490;2023-06-04T12:11:58;1.73;;;1.00;;
55372;SDS011;70018;47.838;16.490;2023-06-04T12:14:29;1.58;;;1.00;;
55372;SDS011;70018;47.838;16.490;2023-06-04T12:19:27;2.38;;;1.10;;
55372;SDS011;70018;47.838;16.490;2023-06-04T12:22:01;2.40;;;1.15;;
55372;SDS011;70018;47.838;16.490;2023-06-04T12:24:31;1.52;;;1.02;;
55372;SDS011;70018;47.838;16.490;2023-06-04T12:27:06;3.65;;;1.33;;
55372;SDS011;70018;47.838;16.490;2023-06-04T12:29:37;2.33;;;0.80;;
55372;SDS011;70018;47.838;16.490;2023-06-04T12:32:10;3.65;;;0.95;;
55372;SDS011;70018;47.838;16.490;2023-06-04T12:34:41;2.92;;;1.10;;
55372;SDS011;70018;47.838;16.490;2023-06-04T12:37:08;1.83;;;1.25;;
55372;SDS011;70018;47.838;16.490;2023-06-04T12:39:35;1.33;;;0.80;;
55372;SDS011;70018;47.838;16.490;2023-06-04T12:42:05;1.65;;;1.02;;
55372;SDS011;70018;47.838;16.490;2023-06-04T12:44:40;1.88;;;0.93;;
55372;SDS011;70018;47.838;16.490;2023-06-04T12:47:07;2.13;;;0.90;;
55372;SDS011;70018;47.838;16.490;2023-06-04T12:49:34;1.30;;;1.00;;
55372;SDS011;70018;47.838;16.490;2023-06-04T12:52:01;2.28;;;1.27;;
55372;SDS011;70018;47.838;16.490;2023-06-04T12:54:28;1.40;;;0.90;;
55372;SDS011;70018;47.838;16.490;2023-06-04T12:56:55;5.22;;;1.33;;
55372;SDS011;70018;47.838;16.490;2023-06-04T12:59:24;1.67;;;1.10;;
55372;SDS011;70018;47.838;16.490;2023-06-04T13:01:55;2.83;;;0.80;;
55372;SDS011;70018;47.838;16.490;2023-06-04T13:04:22;1.80;;;1.10;;
55372;SDS011;70018;47.838;16.490;2023-06-04T13:06:50;1.88;;;1.23;;
55372;SDS011;70018;47.838;16.490;2023-06-04T13:09:19;3.47;;;1.20;;
55372;SDS011;70018;47.838;16.490;2023-06-04T13:11:46;2.25;;;1.33;;
55372;SDS011;70018;47.838;16.490;2023-06-04T13:14:13;2.60;;;1.25;;
55372;SDS011;70018;47.838;16.490;2023-06-04T13:16:40;2.08;;;1.23;;
55372;SDS011;70018;47.838;16.490;2023-06-04T13:19:07;6.13;;;1.42;;
55372;SDS011;70018;47.838;16.490;2023-06-04T13:21:34;3.55;;;1.17;;
55372;SDS011;70018;47.838;16.490;2023-06-04T13:24:01;1.73;;;1.17;;
55372;SDS011;70018;47.838;16.490;2023-06-04T13:26:28;1.80;;;1.20;;
55372;SDS011;70018;47.838;16.490;2023-06-04T13:28:55;3.15;;;1.40;;
55372;SDS011;70018;47.838;16.490;2023-06-04T13:31:22;2.65;;;1.02;;
55372;SDS011;70018;47.838;16.490;2023-06-04T13:33:48;2.50;;;1.30;;
55372;SDS011;70018;47.838;16.490;2023-06-04T13:36:15;2.80;;;1.60;;
55372;SDS011;70018;47.838;16.490;2023-06-04T13:38:42;2.53;;;1.40;;
55372;SDS011;70018;47.838;16.490;2023-06-04T13:41:09;2.70;;;1.35;;
55372;SDS011;70018;47.838;16.490;2023-06-04T13:43:36;3.20;;;1.45;;
55372;SDS011;70018;47.838;16.490;2023-06-04T13:46:03;3.78;;;1.80;;
55372;SDS011;70018;47.838;16.490;2023-06-04T13:48:30;3.28;;;1.60;;
55372;SDS011;70018;47.838;16.490;2023-06-04T13:50:57;2.00;;;1.38;;
55372;SDS011;70018;47.838;16.490;2023-06-04T13:53:24;2.83;;;1.33;;
55372;SDS011;70018;47.838;16.490;2023-06-04T13:55:50;3.78;;;1.48;;
55372;SDS011;70018;47.838;16.490;2023-06-04T13:58:24;5.68;;;2.63;;
55372;SDS011;70018;47.838;16.490;2023-06-04T14:00:51;3.33;;;1.73;;
55372;SDS011;70018;47.838;16.490;2023-06-04T14:03:18;2.50;;;2.13;;
55372;SDS011;70018;47.838;16.490;2023-06-04T14:05:45;2.17;;;1.55;;
55372;SDS011;70018;47.838;16.490;2023-06-04T14:08:12;3.88;;;1.80;;
55372;SDS011;70018;47.838;16.490;2023-06-04T14:10:39;4.10;;;1.95;;
55372;SDS011;70018;47.838;16.490;2023-06-04T14:13:09;5.55;;;2.08;;
55372;SDS011;70018;47.838;16.490;2023-06-04T14:15:36;5.35;;;1.83;;
55372;SDS011;70018;47.838;16.490;2023-06-04T14:18:03;3.88;;;2.28;;
55372;SDS011;70018;47.838;16.490;2023-06-04T14:20:30;4.28;;;2.30;;
55372;SDS011;70018;47.838;16.490;2023-06-04T14:22:57;3.33;;;2.10;;
55372;SDS011;70018;47.838;16.490;2023-06-04T14:25:24;2.50;;;1.77;;
55372;SDS011;70018;47.838;16.490;2023-06-04T14:27:50;4.05;;;2.63;;
55372;SDS011;70018;47.838;16.490;2023-06-04T14:30:17;5.38;;;2.20;;
55372;SDS011;70018;47.838;16.490;2023-06-04T14:32:43;2.95;;;2.10;;
55372;SDS011;70018;47.838;16.490;2023-06-04T14:35:10;9.02;;;2.60;;
55372;SDS011;70018;47.838;16.490;2023-06-04T14:37:37;5.90;;;2.42;;
55372;SDS011;70018;47.838;16.490;2023-06-04T14:40:04;3.33;;;1.95;;
55372;SDS011;70018;47.838;16.490;2023-06-04T14:42:31;5.45;;;2.47;;
55372;SDS011;70018;47.838;16.490;2023-06-04T14:44:58;3.55;;;2.40;;
55372;SDS011;70018;47.838;16.490;2023-06-04T14:47:24;4.57;;;2.15;;
55372;SDS011;70018;47.838;16.490;2023-06-04T14:49:51;2.83;;;2.03;;
55372;SDS011;70018;47.838;16.490;2023-06-04T14:52:18;6.20;;;2.42;;
55372;SDS011;70018;47.838;16.490;2023-06-04T14:54:44;2.95;;;2.15;;